createdAt,value
2018-04-20T00:00:16.358Z,1011.21
2018-04-20T00:01:16.340Z,1011.19
2018-04-20T00:02:16.370Z,1011.19
2018-04-20T00:03:16.290Z,1011.18
2018-04-20T00:04:16.265Z,1011.14
2018-04-20T00:05:16.248Z,1011.18
2018-04-20T00:06:16.227Z,1011.16
2018-04-20T00:07:16.196Z,1011.16
2018-04-20T00:08:16.179Z,1011.15
2018-04-20T00:09:16.153Z,1011.14
2018-04-20T00:10:16.128Z,1011.14
2018-04-20T00:11:16.117Z,1011.10
2018-04-20T00:12:16.082Z,1011.12
2018-04-20T00:13:16.068Z,1011.12
2018-04-20T00:14:16.042Z,1011.14
2018-04-20T00:15:16.017Z,1011.12
2018-04-20T00:16:15.997Z,1011.11
2018-04-20T00:17:15.970Z,1011.12
2018-04-20T00:18:15.948Z,1011.10
2018-04-20T00:19:15.926Z,1011.11
2018-04-20T00:20:15.906Z,1011.08
2018-04-20T00:21:15.886Z,1011.07
2018-04-20T00:22:15.854Z,1011.05
2018-04-20T00:23:15.837Z,1011.04
2018-04-20T00:24:15.806Z,1011.07
2018-04-20T00:25:15.793Z,1011.02
2018-04-20T00:26:15.767Z,1011.01
2018-04-20T00:27:15.749Z,1010.99
2018-04-20T00:28:15.719Z,1010.95
2018-04-20T00:29:15.694Z,1010.98
2018-04-20T00:30:15.670Z,1010.96
2018-04-20T00:31:15.658Z,1010.91
2018-04-20T00:32:15.627Z,1010.94
2018-04-20T00:33:15.606Z,1010.92
2018-04-20T00:34:15.585Z,1010.91
2018-04-20T00:35:15.556Z,1010.86
2018-04-20T00:36:15.536Z,1010.88
2018-04-20T00:37:15.517Z,1010.87
2018-04-20T00:38:15.493Z,1010.90
2018-04-20T00:39:15.464Z,1010.87
2018-04-20T00:40:15.448Z,1010.89
2018-04-20T00:41:15.424Z,1010.89
2018-04-20T00:42:15.394Z,1010.88
2018-04-20T00:43:15.371Z,1010.86
2018-04-20T00:44:15.349Z,1010.89
2018-04-20T00:45:15.392Z,1010.88
2018-04-20T00:46:15.315Z,1010.91
2018-04-20T00:47:15.282Z,1010.87
2018-04-20T00:48:15.261Z,1010.85
2018-04-20T00:49:15.236Z,1010.86
2018-04-20T00:50:15.211Z,1010.83
2018-04-20T00:51:15.195Z,1010.79
2018-04-20T00:52:15.166Z,1010.80
2018-04-20T00:53:15.143Z,1010.77
2018-04-20T00:54:15.119Z,1010.76
2018-04-20T00:55:15.102Z,1010.75
2018-04-20T00:56:15.078Z,1010.72
2018-04-20T00:57:15.052Z,1010.79
2018-04-20T00:58:15.035Z,1010.70
2018-04-20T00:59:15.008Z,1010.71
2018-04-20T01:00:14.980Z,1010.72
2018-04-20T01:01:14.964Z,1010.74
2018-04-20T01:02:14.933Z,1010.71
2018-04-20T01:03:14.919Z,1010.69
2018-04-20T01:04:14.937Z,1010.72
2018-04-20T01:05:14.868Z,1010.70
2018-04-20T01:06:14.850Z,1010.74
2018-04-20T01:07:14.817Z,1010.67
2018-04-20T01:08:14.799Z,1010.67
2018-04-20T01:09:14.773Z,1010.70
2018-04-20T01:10:14.755Z,1010.70
2018-04-20T01:11:14.731Z,1010.68
2018-04-20T01:12:14.718Z,1010.67
2018-04-20T01:13:14.687Z,1010.71
2018-04-20T01:14:14.657Z,1010.65
2018-04-20T01:15:14.635Z,1010.67
2018-04-20T01:16:14.612Z,1010.67
2018-04-20T01:17:14.593Z,1010.69
2018-04-20T01:18:14.574Z,1010.68
2018-04-20T01:19:14.543Z,1010.67
2018-04-20T01:20:14.521Z,1010.67
2018-04-20T01:21:14.497Z,1010.70
2018-04-20T01:22:14.471Z,1010.68
2018-04-20T01:23:14.459Z,1010.65
2018-04-20T01:24:14.439Z,1010.63
2018-04-20T01:25:14.409Z,1010.66
2018-04-20T01:26:14.386Z,1010.67
2018-04-20T01:27:14.364Z,1010.62
2018-04-20T01:28:14.338Z,1010.66
2018-04-20T01:29:14.327Z,1010.65
2018-04-20T01:30:14.291Z,1010.67
2018-04-20T01:31:14.276Z,1010.66
2018-04-20T01:32:14.256Z,1010.66
2018-04-20T01:33:14.238Z,1010.62
2018-04-20T01:34:14.201Z,1010.62
2018-04-20T01:35:14.234Z,1010.63
2018-04-20T01:36:14.158Z,1010.67
2018-04-20T01:37:14.130Z,1010.64
2018-04-20T01:38:14.105Z,1010.63
2018-04-20T01:39:14.084Z,1010.62
2018-04-20T01:40:14.106Z,1010.60
2018-04-20T01:41:14.036Z,1010.65
2018-04-20T01:42:14.018Z,1010.66
2018-04-20T01:43:13.996Z,1010.65
2018-04-20T01:44:13.976Z,1010.63
2018-04-20T01:45:13.967Z,1010.60
2018-04-20T01:46:13.926Z,1010.61
2018-04-20T01:47:13.900Z,1010.61
2018-04-20T01:48:13.878Z,1010.63
2018-04-20T01:49:13.855Z,1010.58
2018-04-20T01:50:13.852Z,1010.55
2018-04-20T01:51:13.805Z,1010.58
2018-04-20T01:52:13.786Z,1010.55
2018-04-20T01:53:13.760Z,1010.57
2018-04-20T01:54:13.737Z,1010.59
2018-04-20T01:55:13.720Z,1010.57
2018-04-20T01:56:13.692Z,1010.55
2018-04-20T01:57:13.666Z,1010.60
2018-04-20T01:58:13.644Z,1010.56
2018-04-20T01:59:13.626Z,1010.52
2018-04-20T02:00:13.603Z,1010.53
2018-04-20T02:01:13.585Z,1010.54
2018-04-20T02:02:13.559Z,1010.50
2018-04-20T02:03:13.537Z,1010.48
2018-04-20T02:04:13.510Z,1010.52
2018-04-20T02:05:13.493Z,1010.48
2018-04-20T02:06:13.495Z,1010.43
2018-04-20T02:07:13.440Z,1010.45
2018-04-20T02:08:13.414Z,1010.43
2018-04-20T02:09:13.399Z,1010.45
2018-04-20T02:10:13.372Z,1010.39
2018-04-20T02:11:13.351Z,1010.42
2018-04-20T02:12:13.322Z,1010.39
2018-04-20T02:13:13.326Z,1010.38
2018-04-20T02:14:13.282Z,1010.39
2018-04-20T02:15:13.257Z,1010.38
2018-04-20T02:16:13.240Z,1010.38
2018-04-20T02:17:13.208Z,1010.44
2018-04-20T02:18:13.187Z,1010.38
2018-04-20T02:19:13.165Z,1010.39
2018-04-20T02:20:13.140Z,1010.42
2018-04-20T02:21:13.121Z,1010.38
2018-04-20T02:22:13.094Z,1010.41
2018-04-20T02:23:13.076Z,1010.37
2018-04-20T02:24:13.053Z,1010.38
2018-04-20T02:25:13.027Z,1010.37
2018-04-20T02:26:13.008Z,1010.40
2018-04-20T02:27:12.982Z,1010.35
2018-04-20T02:28:12.964Z,1010.33
2018-04-20T02:29:12.936Z,1010.34
2018-04-20T02:30:12.912Z,1010.36
2018-04-20T02:31:12.892Z,1010.33
2018-04-20T02:32:12.864Z,1010.29
2018-04-20T02:33:12.849Z,1010.33
2018-04-20T02:34:12.824Z,1010.32
2018-04-20T02:35:12.797Z,1010.35
2018-04-20T02:36:12.866Z,1010.33
2018-04-20T02:37:12.753Z,1010.33
2018-04-20T02:38:12.726Z,1010.29
2018-04-20T02:39:12.711Z,1010.27
2018-04-20T02:40:12.681Z,1010.27
2018-04-20T02:41:12.664Z,1010.25
2018-04-20T02:42:12.644Z,1010.27
2018-04-20T02:43:12.616Z,1010.22
2018-04-20T02:44:12.592Z,1010.22
2018-04-20T02:45:12.575Z,1010.21
2018-04-20T02:46:12.550Z,1010.21
2018-04-20T02:47:12.522Z,1010.19
2018-04-20T02:48:12.507Z,1010.20
2018-04-20T02:49:12.472Z,1010.22
2018-04-20T02:50:12.453Z,1010.22
2018-04-20T02:51:12.436Z,1010.24
2018-04-20T02:52:12.409Z,1010.23
2018-04-20T02:53:12.391Z,1010.28
2018-04-20T02:54:12.368Z,1010.26
2018-04-20T02:55:12.336Z,1010.31
2018-04-20T02:56:12.316Z,1010.28
2018-04-20T02:57:12.301Z,1010.27
2018-04-20T02:58:12.267Z,1010.28
2018-04-20T02:59:12.250Z,1010.30
2018-04-20T03:00:12.223Z,1010.29
2018-04-20T03:01:12.210Z,1010.27
2018-04-20T03:02:12.179Z,1010.28
2018-04-20T03:03:12.163Z,1010.27
2018-04-20T03:04:12.126Z,1010.31
2018-04-20T03:05:12.113Z,1010.27
2018-04-20T03:06:12.084Z,1010.31
2018-04-20T03:07:12.067Z,1010.31
2018-04-20T03:08:12.035Z,1010.32
2018-04-20T03:09:12.018Z,1010.35
2018-04-20T03:10:11.995Z,1010.35
2018-04-20T03:11:11.971Z,1010.36
2018-04-20T03:12:11.948Z,1010.40
2018-04-20T03:13:11.916Z,1010.41
2018-04-20T03:14:11.903Z,1010.39
2018-04-20T03:15:11.873Z,1010.37
2018-04-20T03:16:11.855Z,1010.36
2018-04-20T03:17:11.835Z,1010.32
2018-04-20T03:18:11.806Z,1010.29
2018-04-20T03:19:11.781Z,1010.31
2018-04-20T03:20:11.767Z,1010.26
2018-04-20T03:21:11.730Z,1010.28
2018-04-20T03:22:11.720Z,1010.26
2018-04-20T03:23:11.684Z,1010.26
2018-04-20T03:24:11.671Z,1010.25
2018-04-20T03:25:11.640Z,1010.24
2018-04-20T03:26:11.626Z,1010.24
2018-04-20T03:27:11.596Z,1010.21
2018-04-20T03:28:11.572Z,1010.16
2018-04-20T03:29:11.555Z,1010.16
2018-04-20T03:30:11.524Z,1010.13
2018-04-20T03:31:11.508Z,1010.14
2018-04-20T03:32:11.484Z,1010.13
2018-04-20T03:33:11.453Z,1010.08
2018-04-20T03:34:11.435Z,1010.15
2018-04-20T03:35:11.411Z,1010.11
2018-04-20T03:36:11.383Z,1010.08
2018-04-20T03:37:11.370Z,1010.13
2018-04-20T03:38:11.342Z,1010.09
2018-04-20T03:39:11.314Z,1010.11
2018-04-20T03:40:11.290Z,1010.11
2018-04-20T03:41:11.276Z,1010.10
2018-04-20T03:42:11.249Z,1010.07
2018-04-20T03:43:11.224Z,1010.08
2018-04-20T03:44:11.206Z,1010.07
2018-04-20T03:45:11.174Z,1010.06
2018-04-20T03:46:11.155Z,1010.04
2018-04-20T03:47:11.135Z,1010.02
2018-04-20T03:48:11.104Z,1010.04
2018-04-20T03:49:11.095Z,1010.07
2018-04-20T03:50:11.063Z,1010.05
2018-04-20T03:51:11.056Z,1010.08
2018-04-20T03:52:11.021Z,1010.09
2018-04-20T03:53:10.991Z,1010.09
2018-04-20T03:54:10.972Z,1010.09
2018-04-20T03:55:10.950Z,1010.13
2018-04-20T03:56:10.921Z,1010.15
2018-04-20T03:57:10.898Z,1010.14
2018-04-20T03:58:10.876Z,1010.14
2018-04-20T03:59:10.857Z,1010.11
2018-04-20T04:00:10.837Z,1010.15
2018-04-20T04:01:10.811Z,1010.13
2018-04-20T04:02:10.781Z,1010.10
2018-04-20T04:03:10.760Z,1010.10
2018-04-20T04:04:10.739Z,1010.11
2018-04-20T04:05:10.712Z,1010.07
2018-04-20T04:06:10.686Z,1010.08
2018-04-20T04:07:10.672Z,1010.09
2018-04-20T04:08:10.648Z,1010.10
2018-04-20T04:09:10.714Z,1010.11
2018-04-20T04:10:10.599Z,1010.12
2018-04-20T04:11:10.577Z,1010.13
2018-04-20T04:12:10.551Z,1010.11
2018-04-20T04:13:10.527Z,1010.11
2018-04-20T04:14:10.508Z,1010.10
2018-04-20T04:15:10.479Z,1010.11
2018-04-20T04:16:10.454Z,1010.13
2018-04-20T04:17:10.435Z,1010.14
2018-04-20T04:18:10.410Z,1010.10
2018-04-20T04:19:10.390Z,1010.13
2018-04-20T04:20:10.365Z,1010.11
2018-04-20T04:21:10.348Z,1010.10
2018-04-20T04:22:10.318Z,1010.10
2018-04-20T04:23:10.293Z,1010.09
2018-04-20T04:24:10.269Z,1010.06
2018-04-20T04:25:10.253Z,1010.04
2018-04-20T04:26:10.224Z,1010.10
2018-04-20T04:27:10.207Z,1010.07
2018-04-20T04:28:10.182Z,1010.10
2018-04-20T04:29:10.163Z,1010.10
2018-04-20T04:30:10.135Z,1010.09
2018-04-20T04:31:10.112Z,1010.11
2018-04-20T04:32:10.079Z,1010.12
2018-04-20T04:33:10.067Z,1010.10
2018-04-20T04:34:10.035Z,1010.09
2018-04-20T04:35:10.017Z,1010.12
2018-04-20T04:36:09.991Z,1010.11
2018-04-20T04:37:09.964Z,1010.13
2018-04-20T04:38:09.945Z,1010.08
2018-04-20T04:39:09.920Z,1010.10
2018-04-20T04:40:09.900Z,1010.10
2018-04-20T04:41:09.879Z,1010.10
2018-04-20T04:42:09.852Z,1010.08
2018-04-20T04:43:09.835Z,1010.09
2018-04-20T04:44:09.807Z,1010.06
2018-04-20T04:45:09.778Z,1010.07
2018-04-20T04:46:09.764Z,1010.10
2018-04-20T04:47:09.736Z,1010.07
2018-04-20T04:48:09.719Z,1010.07
2018-04-20T04:49:09.692Z,1010.09
2018-04-20T04:50:09.660Z,1010.11
2018-04-20T04:51:09.646Z,1010.08
2018-04-20T04:52:09.622Z,1010.05
2018-04-20T04:53:09.590Z,1010.05
2018-04-20T04:54:09.569Z,1010.10
2018-04-20T04:55:09.544Z,1010.08
2018-04-20T04:56:09.546Z,1010.07
2018-04-20T04:57:09.502Z,1010.08
2018-04-20T04:58:09.476Z,1010.07
2018-04-20T04:59:09.457Z,1010.10
2018-04-20T05:00:09.429Z,1010.13
2018-04-20T05:01:09.411Z,1010.08
2018-04-20T05:02:09.380Z,1010.10
2018-04-20T05:03:09.366Z,1010.09
2018-04-20T05:04:09.341Z,1010.12
2018-04-20T05:05:09.310Z,1010.10
2018-04-20T05:06:09.301Z,1010.13
2018-04-20T05:07:09.264Z,1010.14
2018-04-20T05:08:09.241Z,1010.10
2018-04-20T05:09:09.251Z,1010.10
2018-04-20T05:10:09.231Z,1010.11
2018-04-20T05:11:09.180Z,1010.08
2018-04-20T05:12:09.156Z,1010.08
2018-04-20T05:13:09.123Z,1010.09
2018-04-20T05:14:09.111Z,1010.09
2018-04-20T05:15:09.083Z,1010.11
2018-04-20T05:16:09.057Z,1010.13
2018-04-20T05:17:09.043Z,1010.13
2018-04-20T05:18:09.023Z,1010.12
2018-04-20T05:19:08.984Z,1010.12
2018-04-20T05:20:08.965Z,1010.11
2018-04-20T05:21:08.943Z,1010.11
2018-04-20T05:22:08.917Z,1010.09
2018-04-20T05:23:08.905Z,1010.15
2018-04-20T05:24:08.877Z,1010.15
2018-04-20T05:25:08.857Z,1010.17
2018-04-20T05:26:08.825Z,1010.15
2018-04-20T05:27:08.811Z,1010.16
2018-04-20T05:28:08.775Z,1010.16
2018-04-20T05:29:08.761Z,1010.16
2018-04-20T05:30:08.735Z,1010.18
2018-04-20T05:31:08.715Z,1010.16
2018-04-20T05:32:08.687Z,1010.17
2018-04-20T05:33:08.665Z,1010.17
2018-04-20T05:34:08.636Z,1010.17
2018-04-20T05:35:08.625Z,1010.17
2018-04-20T05:36:08.592Z,1010.20
2018-04-20T05:37:08.571Z,1010.23
2018-04-20T05:38:08.551Z,1010.24
2018-04-20T05:39:08.525Z,1010.31
2018-04-20T05:40:08.496Z,1010.30
2018-04-20T05:41:08.477Z,1010.29
2018-04-20T05:42:08.453Z,1010.28
2018-04-20T05:43:08.509Z,1010.28
2018-04-20T05:44:08.477Z,1010.28
2018-04-20T05:45:08.398Z,1010.31
2018-04-20T05:46:08.365Z,1010.28
2018-04-20T05:47:08.339Z,1010.28
2018-04-20T05:48:08.320Z,1010.23
2018-04-20T05:49:08.290Z,1010.23
2018-04-20T05:50:08.272Z,1010.25
2018-04-20T05:51:08.243Z,1010.19
2018-04-20T05:52:08.220Z,1010.21
2018-04-20T05:53:08.211Z,1010.19
2018-04-20T05:54:08.172Z,1010.25
2018-04-20T05:55:08.157Z,1010.23
2018-04-20T05:56:08.127Z,1010.26
2018-04-20T05:57:08.134Z,1010.27
2018-04-20T05:58:08.093Z,1010.23
2018-04-20T05:59:08.059Z,1010.27
2018-04-20T06:00:08.042Z,1010.28
2018-04-20T06:01:08.021Z,1010.23
2018-04-20T06:02:07.990Z,1010.24
2018-04-20T06:03:07.968Z,1010.27
2018-04-20T06:04:07.992Z,1010.22
2018-04-20T06:05:07.957Z,1010.23
2018-04-20T06:06:07.893Z,1010.26
2018-04-20T06:07:07.943Z,1010.26
2018-04-20T06:08:07.862Z,1010.25
2018-04-20T06:09:07.825Z,1010.24
2018-04-20T06:10:07.810Z,1010.24
2018-04-20T06:11:07.779Z,1010.31
2018-04-20T06:12:07.763Z,1010.29
2018-04-20T06:13:07.742Z,1010.28
2018-04-20T06:14:07.748Z,1010.31
2018-04-20T06:15:07.696Z,1010.23
2018-04-20T06:16:07.671Z,1010.26
2018-04-20T06:17:07.647Z,1010.26
2018-04-20T06:18:07.629Z,1010.23
2018-04-20T06:19:07.604Z,1010.20
2018-04-20T06:20:07.574Z,1010.22
2018-04-20T06:21:07.557Z,1010.23
2018-04-20T06:22:07.534Z,1010.22
2018-04-20T06:23:07.506Z,1010.17
2018-04-20T06:24:07.485Z,1010.18
2018-04-20T06:25:07.461Z,1010.22
2018-04-20T06:26:07.436Z,1010.20
2018-04-20T06:27:07.420Z,1010.20
2018-04-20T06:28:07.392Z,1010.21
2018-04-20T06:29:07.371Z,1010.18
2018-04-20T06:30:07.350Z,1010.19
2018-04-20T06:31:07.321Z,1010.20
2018-04-20T06:32:07.300Z,1010.18
2018-04-20T06:33:07.276Z,1010.16
2018-04-20T06:34:07.249Z,1010.20
2018-04-20T06:35:07.230Z,1010.18
2018-04-20T06:36:07.213Z,1010.20
2018-04-20T06:37:07.184Z,1010.20
2018-04-20T06:38:07.159Z,1010.19
2018-04-20T06:39:07.145Z,1010.18
2018-04-20T06:40:07.117Z,1010.21
2018-04-20T06:41:07.096Z,1010.22
2018-04-20T06:42:07.074Z,1010.18
2018-04-20T06:43:07.091Z,1010.18
2018-04-20T06:44:07.050Z,1010.21
2018-04-20T06:45:07.089Z,1010.21
2018-04-20T06:46:06.988Z,1010.20
2018-04-20T06:47:06.960Z,1010.23
2018-04-20T06:48:07.037Z,1010.20
2018-04-20T06:49:06.913Z,1010.20
2018-04-20T06:50:06.981Z,1010.20
2018-04-20T06:51:06.883Z,1010.17
2018-04-20T06:52:06.902Z,1010.20
2018-04-20T06:53:06.816Z,1010.18
2018-04-20T06:54:06.850Z,1010.20
2018-04-20T06:55:06.795Z,1010.23
2018-04-20T06:56:06.747Z,1010.23
2018-04-20T06:57:06.807Z,1010.20
2018-04-20T06:58:06.705Z,1010.23
2018-04-20T06:59:06.691Z,1010.25
2018-04-20T07:00:06.696Z,1010.25
2018-04-20T07:01:06.634Z,1010.26
2018-04-20T07:02:06.628Z,1010.26
2018-04-20T07:03:06.617Z,1010.34
2018-04-20T07:04:06.570Z,1010.27
2018-04-20T07:05:06.552Z,1010.30
2018-04-20T07:06:06.522Z,1010.26
2018-04-20T07:07:06.510Z,1010.27
2018-04-20T07:08:06.479Z,1010.27
2018-04-20T07:09:06.461Z,1010.24
2018-04-20T07:10:06.441Z,1010.25
2018-04-20T07:11:06.412Z,1010.24
2018-04-20T07:12:06.441Z,1010.25
2018-04-20T07:13:06.362Z,1010.29
2018-04-20T07:14:06.343Z,1010.31
2018-04-20T07:15:06.335Z,1010.28
2018-04-20T07:16:06.300Z,1010.29
2018-04-20T07:17:06.280Z,1010.30
2018-04-20T07:18:06.287Z,1010.28
2018-04-20T07:19:06.229Z,1010.30
2018-04-20T07:20:06.207Z,1010.27
2018-04-20T07:21:06.189Z,1010.24
2018-04-20T07:22:06.197Z,1010.31
2018-04-20T07:23:06.223Z,1010.25
2018-04-20T07:24:06.123Z,1010.23
2018-04-20T07:25:06.091Z,1010.22
2018-04-20T07:26:06.073Z,1010.19
2018-04-20T07:27:06.055Z,1010.20
2018-04-20T07:28:06.023Z,1010.21
2018-04-20T07:29:06.011Z,1010.23
2018-04-20T07:30:06.026Z,1010.16
2018-04-20T07:31:06.039Z,1010.19
2018-04-20T07:32:05.942Z,1010.16
2018-04-20T07:33:05.968Z,1010.20
2018-04-20T07:34:05.950Z,1010.19
2018-04-20T07:35:05.874Z,1010.20
2018-04-20T07:36:05.851Z,1010.16
2018-04-20T07:37:05.831Z,1010.20
2018-04-20T07:38:05.807Z,1010.20
2018-04-20T07:39:05.787Z,1010.22
2018-04-20T07:40:05.760Z,1010.20
2018-04-20T07:41:05.747Z,1010.24
2018-04-20T07:42:05.730Z,1010.18
2018-04-20T07:43:05.698Z,1010.18
2018-04-20T07:44:05.681Z,1010.17
2018-04-20T07:45:05.645Z,1010.24
2018-04-20T07:46:05.624Z,1010.25
2018-04-20T07:47:05.605Z,1010.23
2018-04-20T07:48:05.597Z,1010.24
2018-04-20T07:49:05.558Z,1010.21
2018-04-20T07:50:05.535Z,1010.19
2018-04-20T07:51:05.520Z,1010.23
2018-04-20T07:52:05.488Z,1010.20
2018-04-20T07:53:05.477Z,1010.25
2018-04-20T07:54:05.452Z,1010.22
2018-04-20T07:55:05.431Z,1010.19
2018-04-20T07:56:05.407Z,1010.21
2018-04-20T07:57:05.376Z,1010.24
2018-04-20T07:58:05.363Z,1010.23
2018-04-20T07:59:05.335Z,1010.25
2018-04-20T08:00:05.309Z,1010.24
2018-04-20T08:01:05.294Z,1010.25
2018-04-20T08:02:05.267Z,1010.28
2018-04-20T08:03:05.254Z,1010.26
2018-04-20T08:04:05.252Z,1010.29
2018-04-20T08:05:05.202Z,1010.32
2018-04-20T08:06:05.242Z,1010.30
2018-04-20T08:07:05.201Z,1010.33
2018-04-20T08:08:05.178Z,1010.31
2018-04-20T08:09:05.113Z,1010.32
2018-04-20T08:10:05.093Z,1010.32
2018-04-20T08:11:05.074Z,1010.35
2018-04-20T08:12:05.106Z,1010.31
2018-04-20T08:13:05.101Z,1010.33
2018-04-20T08:14:05.006Z,1010.30
2018-04-20T08:15:04.980Z,1010.28
2018-04-20T08:16:04.963Z,1010.29
2018-04-20T08:17:04.940Z,1010.26
2018-04-20T08:18:04.914Z,1010.26
2018-04-20T08:19:04.961Z,1010.28
2018-04-20T08:20:04.902Z,1010.29
2018-04-20T08:21:04.866Z,1010.27
2018-04-20T08:22:04.893Z,1010.29
2018-04-20T08:23:04.868Z,1010.29
2018-04-20T08:24:04.860Z,1010.28
2018-04-20T08:25:04.795Z,1010.28
2018-04-20T08:26:04.778Z,1010.30
2018-04-20T08:27:04.776Z,1010.27
2018-04-20T08:28:04.735Z,1010.29
2018-04-20T08:29:04.701Z,1010.29
2018-04-20T08:30:04.742Z,1010.33
2018-04-20T08:31:04.681Z,1010.31
2018-04-20T08:32:04.604Z,1010.32
2018-04-20T08:33:04.614Z,1010.29
2018-04-20T08:34:04.571Z,1010.34
2018-04-20T08:35:04.542Z,1010.33
2018-04-20T08:36:04.527Z,1010.32
2018-04-20T08:37:04.501Z,1010.32
2018-04-20T08:38:04.483Z,1010.32
2018-04-20T08:39:04.453Z,1010.32
2018-04-20T08:40:04.434Z,1010.34
2018-04-20T08:41:04.425Z,1010.34
2018-04-20T08:42:04.449Z,1010.34
2018-04-20T08:43:04.396Z,1010.36
2018-04-20T08:44:04.344Z,1010.30
2018-04-20T08:45:04.343Z,1010.33
2018-04-20T08:46:04.307Z,1010.31
2018-04-20T08:47:04.332Z,1010.32
2018-04-20T08:48:04.287Z,1010.32
2018-04-20T08:49:04.321Z,1010.35
2018-04-20T08:50:04.222Z,1010.36
2018-04-20T08:51:04.240Z,1010.35
2018-04-20T08:52:04.185Z,1010.35
2018-04-20T08:53:04.163Z,1010.38
2018-04-20T08:54:04.133Z,1010.35
2018-04-20T08:55:04.151Z,1010.35
2018-04-20T08:56:04.152Z,1010.32
2018-04-20T08:57:04.112Z,1010.34
2018-04-20T08:58:04.050Z,1010.31
2018-04-20T08:59:04.147Z,1010.35
2018-04-20T09:00:04.005Z,1010.34
2018-04-20T09:01:03.991Z,1010.32
2018-04-20T09:02:03.994Z,1010.31
2018-04-20T09:03:03.977Z,1010.35
2018-04-20T09:04:03.921Z,1010.35
2018-04-20T09:05:03.892Z,1010.39
2018-04-20T09:06:03.895Z,1010.39
2018-04-20T09:07:03.887Z,1010.39
2018-04-20T09:08:03.834Z,1010.35
2018-04-20T09:09:03.817Z,1010.36
2018-04-20T09:10:03.790Z,1010.36
2018-04-20T09:11:03.772Z,1010.34
2018-04-20T09:12:03.752Z,1010.35
2018-04-20T09:13:03.727Z,1010.36
2018-04-20T09:14:03.702Z,1010.31
2018-04-20T09:15:03.745Z,1010.32
2018-04-20T09:16:03.702Z,1010.33
2018-04-20T09:17:03.676Z,1010.31
2018-04-20T09:18:03.670Z,1010.33
2018-04-20T09:19:03.653Z,1010.31
2018-04-20T09:20:03.641Z,1010.29
2018-04-20T09:21:03.568Z,1010.29
2018-04-20T09:22:03.536Z,1010.31
2018-04-20T09:23:03.516Z,1010.27
2018-04-20T09:24:03.491Z,1010.29
2018-04-20T09:25:03.468Z,1010.29
2018-04-20T09:26:03.449Z,1010.27
2018-04-20T09:27:03.442Z,1010.26
2018-04-20T09:28:03.409Z,1010.25
2018-04-20T09:29:03.384Z,1010.30
2018-04-20T09:30:03.369Z,1010.29
2018-04-20T09:31:03.352Z,1010.30
2018-04-20T09:32:03.327Z,1010.28
2018-04-20T09:33:03.301Z,1010.24
2018-04-20T09:34:03.286Z,1010.27
2018-04-20T09:35:03.261Z,1010.26
2018-04-20T09:36:03.236Z,1010.27
2018-04-20T09:37:03.221Z,1010.26
2018-04-20T09:38:03.197Z,1010.26
2018-04-20T09:39:03.178Z,1010.28
2018-04-20T09:40:03.157Z,1010.25
2018-04-20T09:41:03.137Z,1010.23
2018-04-20T09:42:03.115Z,1010.27
2018-04-20T09:43:03.094Z,1010.27
2018-04-20T09:44:03.077Z,1010.22
2018-04-20T09:45:03.054Z,1010.26
2018-04-20T09:46:03.030Z,1010.23
2018-04-20T09:47:03.006Z,1010.20
2018-04-20T09:48:02.986Z,1010.22
2018-04-20T09:49:02.971Z,1010.22
2018-04-20T09:50:02.945Z,1010.21
2018-04-20T09:51:02.928Z,1010.22
2018-04-20T09:52:02.908Z,1010.20
2018-04-20T09:53:02.880Z,1010.15
2018-04-20T09:54:02.864Z,1010.19
2018-04-20T09:55:02.840Z,1010.17
2018-04-20T09:56:02.824Z,1010.16
2018-04-20T09:57:02.795Z,1010.17
2018-04-20T09:58:02.777Z,1010.17
2018-04-20T09:59:02.762Z,1010.16
2018-04-20T10:00:02.744Z,1010.19
2018-04-20T10:01:02.722Z,1010.19
2018-04-20T10:02:02.697Z,1010.21
2018-04-20T10:03:02.681Z,1010.19
2018-04-20T10:04:02.651Z,1010.20
2018-04-20T10:05:02.640Z,1010.22
2018-04-20T10:06:02.616Z,1010.19
2018-04-20T10:07:02.594Z,1010.16
2018-04-20T10:08:02.575Z,1010.20
2018-04-20T10:09:02.548Z,1010.19
2018-04-20T10:10:02.794Z,1010.15
2018-04-20T10:11:02.513Z,1010.21
2018-04-20T10:12:02.484Z,1010.18
2018-04-20T10:13:02.475Z,1010.19
2018-04-20T10:14:02.444Z,1010.20
2018-04-20T10:15:02.427Z,1010.18
2018-04-20T10:16:02.403Z,1010.18
2018-04-20T10:17:02.381Z,1010.15
2018-04-20T10:18:02.363Z,1010.14
2018-04-20T10:19:02.377Z,1010.13
2018-04-20T10:20:02.327Z,1010.15
2018-04-20T10:21:02.298Z,1010.14
2018-04-20T10:22:02.291Z,1010.14
2018-04-20T10:23:02.264Z,1010.15
2018-04-20T10:24:02.238Z,1010.15
2018-04-20T10:25:02.223Z,1010.10
2018-04-20T10:26:02.201Z,1010.11
2018-04-20T10:27:02.178Z,1010.13
2018-04-20T10:28:02.155Z,1010.08
2018-04-20T10:29:02.133Z,1010.08
2018-04-20T10:30:02.123Z,1010.10
2018-04-20T10:31:02.096Z,1010.10
2018-04-20T10:32:02.077Z,1010.09
2018-04-20T10:33:02.082Z,1010.09
2018-04-20T10:34:02.037Z,1010.08
2018-04-20T10:35:02.018Z,1010.09
2018-04-20T10:36:01.994Z,1010.10
2018-04-20T10:37:01.977Z,1010.08
2018-04-20T10:38:01.957Z,1010.10
2018-04-20T10:39:01.933Z,1010.08
2018-04-20T10:40:01.910Z,1010.03
2018-04-20T10:41:01.901Z,1010.06
2018-04-20T10:42:01.871Z,1010.06
2018-04-20T10:43:01.853Z,1010.06
2018-04-20T10:44:01.827Z,1010.06
2018-04-20T10:45:01.809Z,1010.08
2018-04-20T10:46:01.785Z,1010.01
2018-04-20T10:47:01.774Z,1010.03
2018-04-20T10:48:01.752Z,1010.04
2018-04-20T10:49:01.723Z,1009.99
2018-04-20T10:50:01.712Z,1010.01
2018-04-20T10:51:01.691Z,1010.01
2018-04-20T10:52:01.665Z,1010.02
2018-04-20T10:53:01.649Z,1010.04
2018-04-20T10:54:01.624Z,1010.03
2018-04-20T10:55:01.610Z,1010.01
2018-04-20T10:56:01.587Z,1009.99
2018-04-20T10:57:01.562Z,1009.98
2018-04-20T10:58:01.548Z,1009.98
2018-04-20T10:59:01.522Z,1009.93
2018-04-20T11:00:01.509Z,1010.00
2018-04-20T11:01:01.483Z,1009.96
2018-04-20T11:02:01.472Z,1009.94
2018-04-20T11:03:01.444Z,1009.97
2018-04-20T11:04:01.420Z,1009.91
2018-04-20T11:05:01.408Z,1009.93
2018-04-20T11:06:01.385Z,1009.98
2018-04-20T11:07:01.359Z,1009.91
2018-04-20T11:08:01.366Z,1009.90
2018-04-20T11:09:01.320Z,1009.88
2018-04-20T11:10:01.308Z,1009.90
2018-04-20T11:11:01.283Z,1009.87
2018-04-20T11:12:01.257Z,1009.89
2018-04-20T11:13:01.269Z,1009.88
2018-04-20T11:14:01.236Z,1009.88
2018-04-20T11:15:01.227Z,1009.87
2018-04-20T11:16:01.183Z,1009.84
2018-04-20T11:17:01.162Z,1009.86
2018-04-20T11:18:01.139Z,1009.85
2018-04-20T11:19:01.117Z,1009.86
2018-04-20T11:20:01.104Z,1009.85
2018-04-20T11:21:01.073Z,1009.85
2018-04-20T11:22:01.059Z,1009.84
2018-04-20T11:23:01.062Z,1009.79
2018-04-20T11:24:01.070Z,1009.81
2018-04-20T11:25:01.041Z,1009.79
2018-04-20T11:26:01.051Z,1009.86
2018-04-20T11:27:00.956Z,1009.77
2018-04-20T11:28:00.957Z,1009.72
2018-04-20T11:29:00.914Z,1009.72
2018-04-20T11:30:00.891Z,1009.68
2018-04-20T11:31:00.880Z,1009.72
2018-04-20T11:32:00.903Z,1009.72
2018-04-20T11:33:00.831Z,1009.69
2018-04-20T11:34:00.813Z,1009.71
2018-04-20T11:35:00.799Z,1009.71
2018-04-20T11:36:00.777Z,1009.65
2018-04-20T11:37:00.763Z,1009.65
2018-04-20T11:38:00.737Z,1009.75
2018-04-20T11:39:00.720Z,1009.70
2018-04-20T11:40:00.696Z,1009.71
2018-04-20T11:41:00.675Z,1009.72
2018-04-20T11:42:00.655Z,1009.66
2018-04-20T11:43:00.642Z,1009.74
2018-04-20T11:44:00.617Z,1009.66
2018-04-20T11:45:00.595Z,1009.67
2018-04-20T11:46:00.573Z,1009.68
2018-04-20T11:47:00.557Z,1009.65
2018-04-20T11:48:00.536Z,1009.64
2018-04-20T11:49:00.519Z,1009.58
2018-04-20T11:50:00.490Z,1009.63
2018-04-20T11:51:00.487Z,1009.59
2018-04-20T11:52:00.457Z,1009.56
2018-04-20T11:53:00.431Z,1009.56
2018-04-20T11:54:00.474Z,1009.56
2018-04-20T11:55:00.445Z,1009.58
2018-04-20T11:56:00.375Z,1009.57
2018-04-20T11:57:00.357Z,1009.59
2018-04-20T11:58:00.343Z,1009.58
2018-04-20T11:59:00.313Z,1009.49
2018-04-20T12:00:00.301Z,1009.54
2018-04-20T12:01:00.273Z,1009.56
2018-04-20T12:02:00.269Z,1009.53
2018-04-20T12:03:00.241Z,1009.54
2018-04-20T12:04:00.220Z,1009.48
2018-04-20T12:05:00.192Z,1009.50